This is the latest recevied weather packets stored in our database for station/object DM1MT. If no packets are shown the sender has not sent any weather packets the latest 10 day(s).
| Time | Temp. | Humidity | Pressure | Rain* | Wind** | Luminosity | Snow |
|---|---|---|---|---|---|---|---|
| 1777817223 | 23.33° C | 39% | 1004.2 hPa | 0 mm | - | 177 W/m² | - |
| 1777816006 | 23.33° C | 39% | 1004.4 hPa | 0 mm | - | 136 W/m² | - |
| 1777815417 | 23.89° C | 37% | 1004.5 hPa | 0 mm | - | 160 W/m² | - |
| 1777811203 | 23.89° C | 38% | 1005 hPa | 0 mm | - | 355 W/m² | - |
| 1777810663 | 23.33° C | 39% | 1005.2 hPa | 0 mm | - | 214 W/m² | - |
| 1777807583 | 21.11° C | 43% | 1005.3 hPa | 0 mm | - | 362 W/m² | - |
| 1777805269 | 19.44° C | 54% | 1005.8 hPa | 0 mm | - | 321 W/m² | - |
| 1777802209 | 18.89° C | 59% | 1005.9 hPa | 0 mm | - | 134 W/m² | - |
| 1777799869 | 17.22° C | 60% | 1006.4 hPa | 0 mm | - | 236 W/m² | - |
| 1777798643 | 16.67° C | 69% | 1006.6 hPa | 0 mm | - | 152 W/m² | - |
| 1777796803 | 16.67° C | 63% | 1006.7 hPa | 0 mm | - | 57 W/m² | - |
| 1777795609 | 16.67° C | 63% | 1006.5 hPa | 0 mm | - | 87 W/m² | - |
| 1777790882 | 14.44° C | 67% | 1006.8 hPa | 0 mm | - | 90 W/m² | - |
| 1777785395 | 13.33° C | 68% | 1006.2 hPa | 0 mm | - | 29 W/m² | - |
| 1777776470 | 12.78° C | 68% | 1006.2 hPa | 0 mm | - | 0 W/m² | - |
| 1777775842 | 13.33° C | 68% | 1006.2 hPa | 0 mm | - | 0 W/m² | - |
| 1777772186 | 13.89° C | 67% | 1006.4 hPa | 0 mm | - | 0 W/m² | - |
| 1777770362 | 14.44° C | 64% | 1006.4 hPa | 0 mm | - | 0 W/m² | - |
| 1777769202 | 15° C | 64% | 1006.5 hPa | 0 mm | - | 0 W/m² | - |
| 1777768646 | 15° C | 60% | 1006.7 hPa | 0 mm | - | 0 W/m² | - |
| 1777761389 | 16.11° C | 58% | 1006.8 hPa | 0 mm | - | 0 W/m² | - |
| 1777750661 | 18.89° C | 56% | 1007.3 hPa | 0 mm | - | 0 W/m² | - |
| 1777749465 | 20° C | 58% | 1007.1 hPa | 0 mm | - | 0 W/m² | - |
| 1777746502 | 23.89° C | 51% | 1007.1 hPa | 0 mm | - | 11 W/m² | - |
| 1777745927 | 25° C | 48% | 1007 hPa | 0 mm | - | 20 W/m² | - |
* Rain latest hour (hover to see other rain measurements)
** Current wind speed in m/s (hover to see current wind gust speed)